Saddle River, NJ (07458)

7:19 PM EDT on March 25, 2017 (GMT -0400)
MSADN4 | | Change Station

Elev 183 ft 41.06 °N, 74.10 °W | Updated 14 hours ago

Overcast
Overcast
36.0 °F
Feels Like 36 °F
N
-
Wind Variable Wind from North

Today
High -- | Low -- °F
--% Chance of Precip.
Yesterday
High -- | Low -- °F
Precip. -- in
Pressure 30.27 in
Visibility 7.0 miles
Clouds Overcast 4900 ft
Windchill 36 °F
Dew Point Not available.
Humidity Not available.
Rainfall 0.05 in
Snow Depth Not available.
6:50 AM 7:14 PM
Waning Crescent, 6% visible
METAR KTEB 252251Z VRB03KT 7SM -RA OVC049 09/04 A3027 RMK AO2 RAB43 SLP251 P0000 T00890039
Pressure 30.27 in
Visibility 7.0 miles
Clouds Overcast 4900 ft
Windchill 36 °F
Dew Point Not available.
Humidity Not available.
Rainfall 0.05 in
Snow Depth Not available.
6:50 AM 7:14 PM
Waning Crescent, 6% visible
METAR KTEB 252251Z VRB03KT 7SM -RA OVC049 09/04 A3027 RMK AO2 RAB43 SLP251 P0000 T00890039

Get Severe Weather Alerts

Thanks for signing up!

Be on the lookout for a verification email in your inbox.

You'll start receiving the daily forecast at 8 AM.

×

10-Day Weather Forecast

Almanac

Astronomy

Mar. 25, 2017 Rise Set
Actual Time
Civil Twilight
Nautical Twilight
Astronomical Twilight
Moon
Length of Visible Light
Length of Day
Tomorrow will be .
, % of the Moon is Illuminated

Today's Extremes

State Highs State Lows

Community

WunderPhotos

Upload Photos

1,962,540 photos uploaded!

WunderBlog® & News

Nearby

Air Quality

  Air Quality AQ Index Pollutant
Not available.

Snow Depth

Station Depth Elevation

Earthquake Activity

City Distance Mag. Time & Date
Minimum magnitude displayed is 2.5.

Earthquake Activity

City Distance Mag. Time & Date
Minimum magnitude displayed is 2.5.

Coastal Water Temperatures

Place Temperature

Stations

Nearby Weather Stations

Station Location Temp. Windchill Dew Point Humidity Wind Precip. Elev Updated Type
                   

Watches & Warnings

There are currently no watches in effect.